Etusivu
METAR-TAF:

METAR-TAF

Lentoasemat :

Djerba, Tunisia

Leveyspiiri: 33-52N, Pituuspiiri: 010-46E, korkeus merenpinnasta: 3 m

Tämänhetkinen sää

Tämä raportti tehtiin 14 minuuttia sitten, kello 05.00 UTC
Tuuli 2 kn eri suunnista
Lämpötila 14°C
Kosteus 77%
Ilmanpaine 1019 hPa

METAR: DTTJ 050500Z VRB02KT 14/10 Q1019

Aika: 06:14 (05:14 UTC)

Sääennuste

Tämä raportti tehtiin 6 tuntia ja 14 minuuttia sitten, kello 23.00 UTC
Ennuste voimassa 05. päivästä klo 00 UTC - 05. päivään klo 24 UTC
Tuuli 3 kn koillisesta
Näkyvyys 10 km tai enemmän
Muutamia pilviä 2000 ft:n korkeudessa
Tulossa
05. päivästä klo 16 UTC - 05. päivään klo 18 UTC
Tuuli 12 kn idästä

TAF: DTTJ 042300Z 0500/0524 04003KT 9999 FEW020 BECMG 0516/0518 10012KT

Säähavainnot ja -ennusteet yli 4000 lentoasemalta (METAR- ja TAF-raportit).

Käytössä olevat sääasemat on merkitty karttaan keltaisilla ja punaisilla pisteillä.

Aseta hiiri pisteen päälle nähdäksesi sääaseman nimen.

Klikkaa sitten nähdäksesi säähavainnot ja -ennusteet.

Kartan vaihtaminen: klikkaa mustalla rastilla varustettuja vihreitä pisteitä, niin voit zoomata sisään; viivalla varustettua vihreää pistettä, niin voit zoomata ulos tai vihreitä nuolia, niin pääset viereisille kartoille.


METAR-TAF: